Sembria — V2QG7 — position and weather

sailwx.info

Track history (hours):
 
Tides and Currents Weather Stations Pressure Air Temp Water Temp Dewpoint Dewpoint Depression Visibility Wind Speed Wind Dir Waves Ship Positions

Sembria

Last reported at 2014-Nov-22 00:26 UTC. Time now 2014-Nov-23 10:00 UTC.
Position N 37°34' E 005°16'.

Length 107 m; draft 6 m.

Type: Cargo ship. MMSI: 304010760.

Date/timePositionNaut miles runAvg speedWind from/ knotsBaromVisibWave heightAir tempDewpointWater temp
2014-Nov-22 00:26N 37°34' E 005°16'9 9.9
2014-Nov-21 23:33N 37°36' E 005°27'14 9.7
2014-Nov-21 22:10N 37°40' E 005°44'1212.5
2014-Nov-21 21:11N 37°42' E 005°59'22 8.4
2014-Nov-21 18:32N 37°47' E 006°26'13 8.8
2014-Nov-21 17:06N 37°49' E 006°42'6 8.6
2014-Nov-21 16:22N 37°50' E 006°50'8 7.6
2014-Nov-21 15:18N 37°52' E 006°60'0 0.4
2014-Nov-21 14:26N 37°51' E 006°60'1 0.5
2014-Nov-21 13:20N 37°51' E 006°59'1 0.5
2014-Nov-21 12:07N 37°50' E 006°59'0 0.4
2014-Nov-21 11:27N 37°50' E 006°59'0 0.4
2014-Nov-21 10:32N 37°50' E 006°59'1 0.4
2014-Nov-21 09:07N 37°49' E 006°59'0 0.4
2014-Nov-21 08:25N 37°49' E 006°59'0 0.2
2014-Nov-21 07:31N 37°49' E 006°59'43 7.1
2014-Nov-21 01:27N 37°47' E 007°54'19 9.7
2014-Nov-20 23:29N 37°46' E 008°18'13 9.8
2014-Nov-20 22:07N 37°45' E 008°35'6 9.2
2014-Nov-20 21:29N 37°45' E 008°42'11 9.1
2014-Nov-20 20:17N 37°44' E 008°56'7 9.0
2014-Nov-20 19:33N 37°43' E 009°04'28 8.9
2014-Nov-20 16:25N 37°41' E 009°39'20 9.0
2014-Nov-20 14:14N 37°40' E 010°04'6 8.9
2014-Nov-20 13:33N 37°40' E 010°11'187 9.3
2014-Nov-19 17:29N 36°35' E 013°52'428 8.9
2014-Nov-17 17:26N 36°24' E 022°44'8 9.1
2014-Nov-17 16:33N 36°26' E 022°54'79 7.9
2014-Nov-17 06:33N 37°25' E 023°59'9 9.4
2014-Nov-17 05:33N 37°33' E 024°05'9 9.3
2014-Nov-17 04:32N 37°41' E 024°12'19 9.7
2014-Nov-17 02:33N 37°54' E 024°31'20 9.9
2014-Nov-17 00:31N 38°11' E 024°43'  
Track history (hours):
 
Tides and Currents Weather Stations Pressure Air Temp Water Temp Dewpoint Dewpoint Depression Visibility Wind Speed Wind Dir Waves Ship Positions

Sembria

Last reported at 2014-Nov-22 00:26 UTC. Time now 2014-Nov-23 10:00 UTC.
Position N 37°34' E 005°16'.

Length 107 m; draft 6 m.

Type: Cargo ship. MMSI: 304010760.

Date/timePositionNaut miles runAvg speedWind from/ knotsBaromVisibWave heightAir tempDewpointWater temp
2014-Nov-22 00:26N 37°34' E 005°16'9 9.9
2014-Nov-21 23:33N 37°36' E 005°27'14 9.7
2014-Nov-21 22:10N 37°40' E 005°44'1212.5
2014-Nov-21 21:11N 37°42' E 005°59'22 8.4
2014-Nov-21 18:32N 37°47' E 006°26'13 8.8
2014-Nov-21 17:06N 37°49' E 006°42'6 8.6
2014-Nov-21 16:22N 37°50' E 006°50'8 7.6
2014-Nov-21 15:18N 37°52' E 006°60'0 0.4
2014-Nov-21 14:26N 37°51' E 006°60'1 0.5
2014-Nov-21 13:20N 37°51' E 006°59'1 0.5
2014-Nov-21 12:07N 37°50' E 006°59'0 0.4
2014-Nov-21 11:27N 37°50' E 006°59'0 0.4
2014-Nov-21 10:32N 37°50' E 006°59'1 0.4
2014-Nov-21 09:07N 37°49' E 006°59'0 0.4
2014-Nov-21 08:25N 37°49' E 006°59'0 0.2
2014-Nov-21 07:31N 37°49' E 006°59'43 7.1
2014-Nov-21 01:27N 37°47' E 007°54'19 9.7
2014-Nov-20 23:29N 37°46' E 008°18'13 9.8
2014-Nov-20 22:07N 37°45' E 008°35'6 9.2
2014-Nov-20 21:29N 37°45' E 008°42'11 9.1
2014-Nov-20 20:17N 37°44' E 008°56'7 9.0
2014-Nov-20 19:33N 37°43' E 009°04'28 8.9
2014-Nov-20 16:25N 37°41' E 009°39'20 9.0
2014-Nov-20 14:14N 37°40' E 010°04'6 8.9
2014-Nov-20 13:33N 37°40' E 010°11'187 9.3
2014-Nov-19 17:29N 36°35' E 013°52'428 8.9
2014-Nov-17 17:26N 36°24' E 022°44'8 9.1
2014-Nov-17 16:33N 36°26' E 022°54'79 7.9
2014-Nov-17 06:33N 37°25' E 023°59'9 9.4
2014-Nov-17 05:33N 37°33' E 024°05'9 9.3
2014-Nov-17 04:32N 37°41' E 024°12'19 9.7
2014-Nov-17 02:33N 37°54' E 024°31'20 9.9
2014-Nov-17 00:31N 38°11' E 024°43'  

Dump ship's entire track history